Time;durP1;ratioP1;P1;durP2;ratioP2;P2;SDS_P1;SDS_P2;PMS_P1;PMS_P2;Temp;Humidity;BMP_temperature;BMP_pressure;BME280_temperature;BME280_humidity;BME280_pressure;Samples;Min_cycle;Max_cycle;Signal;HPM_P1;HPM_P2
2021/06/06 00:01:22;;;;;;;;;8.00;8.00;;;;;19.84;70.63;100983.28;5034334;28;8846;-77
2021/06/06 00:04:22;;;;;;;;;9.00;9.00;;;;;19.78;70.66;100980.00;5020640;28;8842;-77
2021/06/06 00:07:18;;;;;;;;;8.00;8.00;;;;;19.72;72.04;100984.38;5048548;28;8823;-77
2021/06/06 00:10:14;;;;;;;;;9.00;9.00;;;;;19.61;68.67;100977.84;5073640;28;8903;-77
2021/06/06 00:12:43;;;;;;;;;10.00;9.75;;;;;19.26;68.73;100978.25;5036809;28;8832;-77
2021/06/06 00:15:39;;;;;;;;;9.75;9.75;;;;;18.94;69.70;100980.66;5045765;28;8824;-77
2021/06/06 00:18:35;;;;;;;;;9.75;9.75;;;;;19.40;71.73;100970.81;5053460;28;8828;-76
2021/06/06 00:21:32;;;;;;;;;7.75;7.75;;;;;19.91;72.39;100974.91;5053069;28;8878;-77
2021/06/06 00:24:31;;;;;;;;;8.50;8.00;;;;;19.72;69.05;100967.56;5039766;28;8854;-77
2021/06/06 00:27:26;;;;;;;;;6.75;6.75;;;;;19.54;71.88;100966.53;5053174;28;8878;-77
2021/06/06 00:30:23;;;;;;;;;7.25;7.25;;;;;19.47;72.64;100964.44;5039558;28;8883;-77
2021/06/06 00:32:52;;;;;;;;;8.00;8.00;;;;;19.76;71.47;100965.56;5054401;28;8867;-77
2021/06/06 00:35:34;;;;;;;;;6.75;6.75;;;;;19.56;69.60;100962.16;5048194;28;8866;-76
2021/06/06 00:38:02;;;;;;;;;11.00;11.00;;;;;19.27;69.56;100954.63;5073312;28;8976;-77
2021/06/06 00:40:37;;;;;;;;;10.00;10.00;;;;;19.34;70.89;100951.91;5073929;28;8849;-77
2021/06/06 00:43:33;;;;;;;;;12.00;10.75;;;;;19.05;70.93;100951.56;5072617;28;8888;-77
2021/06/06 00:46:04;;;;;;;;;7.25;7.25;;;;;18.97;71.81;100951.88;5073925;28;8867;-77
2021/06/06 00:49:00;;;;;;;;;5.00;5.00;;;;;19.19;71.63;100941.72;5072061;28;8991;-76
2021/06/06 00:51:58;;;;;;;;;8.00;8.00;;;;;18.95;71.47;100941.06;5072665;28;8857;-77
2021/06/06 00:54:54;;;;;;;;;7.75;7.75;;;;;18.79;72.49;100935.66;5072410;28;8845;-77
2021/06/06 00:57:32;;;;;;;;;7.00;7.00;;;;;18.83;71.94;100942.09;5073761;28;8833;-77
2021/06/06 01:00:35;;;;;;;;;9.00;9.00;;;;;18.92;73.15;100941.78;5060872;28;8872;-77
2021/06/06 01:03:04;;;;;;;;;8.75;8.75;;;;;18.77;72.20;100942.81;5056290;28;8872;-76
2021/06/06 01:05:42;;;;;;;;;9.75;9.75;;;;;18.80;72.93;100933.66;5050527;28;8912;-77
2021/06/06 01:08:39;;;;;;;;;8.50;8.50;;;;;18.73;72.89;100923.16;5050028;28;8866;-77
2021/06/06 01:11:51;;;;;;;;;10.00;10.00;;;;;18.64;72.88;100933.03;5052741;28;8836;-77
2021/06/06 01:14:56;;;;;;;;;10.75;10.75;;;;;18.51;73.71;100938.03;5052377;28;8831;-78
2021/06/06 01:17:55;;;;;;;;;12.00;12.00;;;;;18.37;74.07;100930.22;5053630;28;8852;-77
2021/06/06 01:20:56;;;;;;;;;10.00;10.00;;;;;18.25;74.22;100930.47;5052122;28;8859;-77
2021/06/06 01:24:06;;;;;;;;;9.25;9.25;;;;;18.60;73.71;100932.97;5039524;28;8932;-78
2021/06/06 01:27:05;;;;;;;;;9.75;9.75;;;;;18.45;73.51;100933.94;5052973;28;8846;-78
2021/06/06 01:30:06;;;;;;;;;11.50;11.50;;;;;18.48;73.75;100928.41;5051333;28;8839;-78
2021/06/06 01:32:55;;;;;;;;;10.00;10.00;;;;;18.51;73.58;100926.84;5052939;28;9608;-78
2021/06/06 01:35:57;;;;;;;;;9.50;9.50;;;;;18.54;73.41;100932.47;5052054;28;8855;-78
2021/06/06 01:39:21;;;;;;;;;10.75;10.75;;;;;18.92;74.23;100932.59;5051970;28;8856;-78
2021/06/06 01:42:28;;;;;;;;;8.25;8.25;;;;;18.67;73.49;100929.47;5053083;28;8918;-78
2021/06/06 01:45:33;;;;;;;;;9.50;9.50;;;;;18.23;74.71;100921.63;5039861;28;8866;-78
2021/06/06 01:48:29;;;;;;;;;10.00;10.00;;;;;18.20;74.62;100928.00;5053580;28;8862;-78
2021/06/06 01:51:33;;;;;;;;;12.00;12.00;;;;;18.26;75.13;100921.69;5052119;28;8917;-78
2021/06/06 01:54:06;;;;;;;;;9.50;9.50;;;;;18.23;74.98;100918.81;5053098;28;8954;-77
2021/06/06 01:57:02;;;;;;;;;9.25;9.25;;;;;18.31;74.79;100923.34;5051091;28;8842;-78
2021/06/06 02:00:00;;;;;;;;;9.75;9.75;;;;;18.35;74.54;100918.63;5052432;28;9524;-78
2021/06/06 02:02:56;;;;;;;;;12.75;11.00;;;;;18.22;74.63;100931.22;5052400;28;8839;-78
2021/06/06 02:05:55;;;;;;;;;11.00;11.00;;;;;18.17;75.23;100925.94;5058175;28;8853;-78
2021/06/06 02:08:51;;;;;;;;;10.50;10.50;;;;;18.21;74.96;100924.00;5051628;28;8886;-78
2021/06/06 02:11:22;;;;;;;;;9.50;9.50;;;;;18.19;75.35;100926.38;5053077;28;8948;-78
2021/06/06 02:14:23;;;;;;;;;12.75;12.00;;;;;18.26;75.58;100921.69;5051335;28;8848;-77
2021/06/06 02:17:30;;;;;;;;;9.00;9.00;;;;;18.35;75.51;100921.41;5014553;28;9034;-77
2021/06/06 02:20:09;;;;;;;;;11.25;11.25;;;;;18.25;76.00;100924.88;5052684;28;8836;-78
2021/06/06 02:23:05;;;;;;;;;11.25;11.25;;;;;18.15;76.37;100925.50;5051732;28;8835;-78
2021/06/06 02:26:07;;;;;;;;;10.25;10.25;;;;;18.13;76.61;100927.88;5051659;28;8870;-78
2021/06/06 02:29:08;;;;;;;;;11.50;11.50;;;;;18.05;77.08;100938.97;5042772;28;8892;-78
2021/06/06 02:32:15;;;;;;;;;13.00;13.00;;;;;18.07;77.52;100935.78;5031432;28;8848;-78
2021/06/06 02:35:16;;;;;;;;;10.25;10.25;;;;;18.19;76.79;100918.78;5031434;28;8836;-78
2021/06/06 02:38:21;;;;;;;;;8.25;8.25;;;;;18.19;76.57;100926.38;5002650;28;8877;-78
2021/06/06 02:41:25;;;;;;;;;11.25;11.25;;;;;18.16;76.38;100924.31;5011608;28;8844;-78
2021/06/06 02:44:29;;;;;;;;;12.00;12.00;;;;;17.99;77.29;100928.47;5013292;28;8864;-78
2021/06/06 02:47:12;;;;;;;;;11.75;11.25;;;;;17.99;77.54;100925.66;5016338;28;8968;-78
2021/06/06 02:50:18;;;;;;;;;9.75;9.75;;;;;18.17;78.07;100925.94;5049239;28;8982;-77
2021/06/06 02:53:14;;;;;;;;;11.00;11.00;;;;;18.37;77.14;100935.84;5038190;28;9001;-78
2021/06/06 02:56:17;;;;;;;;;11.75;11.75;;;;;18.30;77.11;100928.13;5034888;28;8931;-78
2021/06/06 02:59:36;;;;;;;;;12.50;12.50;;;;;18.36;77.22;100927.81;5037960;28;8832;-78
2021/06/06 03:02:42;;;;;;;;;11.50;11.50;;;;;18.49;76.67;100927.22;5053174;28;8858;-78
2021/06/06 03:05:39;;;;;;;;;10.75;10.75;;;;;18.61;76.52;100924.16;5034694;28;8837;-78
2021/06/06 03:08:35;;;;;;;;;12.00;12.00;;;;;18.53;76.64;100928.06;5051384;28;8885;-79
2021/06/06 03:11:37;;;;;;;;;15.00;15.00;;;;;18.76;75.95;100930.00;5054073;28;8854;-78
2021/06/06 03:14:38;;;;;;;;;13.25;13.25;;;;;18.51;76.85;100930.44;5053775;28;8823;-78
2021/06/06 03:17:41;;;;;;;;;12.75;12.75;;;;;18.56;76.78;100932.13;5060560;28;8859;-78
2021/06/06 03:20:15;;;;;;;;;12.25;12.25;;;;;18.28;78.16;100927.72;5074649;28;8852;-79
2021/06/06 03:23:15;;;;;;;;;13.50;13.50;;;;;18.28;78.84;100921.31;5071938;28;8870;-78
2021/06/06 03:26:12;;;;;;;;;21.75;21.75;;;;;18.59;78.39;100934.94;5054420;28;8869;-78
2021/06/06 03:29:13;;;;;;;;;16.00;16.00;;;;;18.77;77.25;100935.22;5056671;28;8835;-78
2021/06/06 03:32:11;;;;;;;;;13.50;13.25;;;;;19.12;75.63;100923.63;5071692;28;8827;-78
2021/06/06 03:34:54;;;;;;;;;11.25;11.25;;;;;19.12;75.39;100922.81;5039019;28;8833;-77
2021/06/06 03:37:53;;;;;;;;;10.75;10.25;;;;;19.02;75.30;100934.72;5054101;28;8841;-79
2021/06/06 03:40:50;;;;;;;;;16.50;16.25;;;;;19.10;75.00;100928.81;5040707;28;8817;-78
2021/06/06 03:43:49;;;;;;;;;8.75;8.75;;;;;19.16;74.57;100921.66;5053820;28;8833;-78
2021/06/06 03:46:20;;;;;;;;;13.50;13.50;;;;;19.14;73.93;100921.25;5037702;28;8829;-78
2021/06/06 03:49:17;;;;;;;;;11.50;11.00;;;;;19.23;74.16;100920.13;5054209;28;8878;-78
2021/06/06 03:52:13;;;;;;;;;10.75;10.75;;;;;19.11;72.82;100918.41;5055332;28;8943;-78
2021/06/06 03:54:42;;;;;;;;;12.25;11.00;;;;;19.07;73.02;100923.16;5067620;28;8854;-78
2021/06/06 03:57:27;;;;;;;;;26.25;26.25;;;;;19.22;73.39;100913.72;5056187;28;8929;-78
2021/06/06 04:00:33;;;;;;;;;10.50;10.00;;;;;19.60;71.27;100923.75;5056065;28;8847;-77
2021/06/06 04:03:29;;;;;;;;;8.00;8.00;;;;;19.40;70.70;100923.13;5055199;28;8832;-78
2021/06/06 04:06:25;;;;;;;;;71.50;61.50;;;;;19.63;75.35;100925.78;5055377;28;8839;-79
2021/06/06 04:09:08;;;;;;;;;9.00;9.00;;;;;19.68;70.48;100924.59;5059175;28;11211;-77
2021/06/06 04:12:07;;;;;;;;;36.00;34.00;;;;;19.89;72.93;100919.19;5057689;28;8897;-77
2021/06/06 04:14:49;;;;;;;;;38.75;35.50;;;;;19.95;71.99;100930.88;5038953;28;9078;-78
2021/06/06 04:17:38;;;;;;;;;21.00;21.00;;;;;19.73;70.28;100929.06;5058534;28;8841;-78
2021/06/06 04:20:34;;;;;;;;;33.00;31.50;;;;;19.91;71.83;100927.22;5061133;28;8834;-78
2021/06/06 04:23:30;;;;;;;;;43.50;38.00;;;;;19.85;70.50;100921.13;5054843;28;8832;-78
2021/06/06 04:26:26;;;;;;;;;28.50;28.25;;;;;19.50;70.68;100918.81;5071729;28;8842;-77
2021/06/06 04:29:16;;;;;;;;;57.25;47.50;;;;;20.15;73.27;100918.16;5058778;28;8877;-77
2021/06/06 04:32:15;;;;;;;;;21.75;21.75;;;;;20.04;69.51;100927.72;5075544;28;9890;-78
2021/06/06 04:35:11;;;;;;;;;12.50;12.50;;;;;19.86;69.47;100924.75;5065785;28;8856;-78
2021/06/06 04:37:39;;;;;;;;;12.75;11.50;;;;;19.78;70.05;100918.28;5059041;28;8843;-78
2021/06/06 04:40:35;;;;;;;;;34.67;32.67;;;;;20.11;72.22;100916.53;5060098;28;8835;-78
2021/06/06 04:43:21;;;;;;;;;21.25;21.25;;;;;20.60;71.31;100930.09;5053383;28;9816;-78
2021/06/06 04:46:18;;;;;;;;;18.25;18.00;;;;;20.58;68.95;100924.06;5051949;28;8851;-78
2021/06/06 04:49:14;;;;;;;;;36.00;33.00;;;;;20.88;69.88;100929.44;5057562;28;8839;-78
2021/06/06 04:52:13;;;;;;;;;28.50;26.50;;;;;20.69;66.78;100921.31;5056121;28;9651;-78
2021/06/06 04:54:44;;;;;;;;;34.00;31.75;;;;;20.74;69.73;100923.75;5054497;28;8871;-77
2021/06/06 04:57:12;;;;;;;;;31.75;31.00;;;;;20.98;69.00;100913.81;5055175;28;9597;-77
2021/06/06 04:59:40;;;;;;;;;28.75;28.75;;;;;21.19;68.20;100922.31;5054316;28;8840;-79
2021/06/06 05:02:36;;;;;;;;;34.50;32.25;;;;;21.06;66.89;100923.88;5063286;28;9631;-78
2021/06/06 05:05:32;;;;;;;;;47.67;39.00;;;;;20.75;65.91;100926.16;5054990;28;9550;-79
2021/06/06 05:08:01;;;;;;;;;59.33;45.00;;;;;20.87;66.06;100925.03;5062263;28;8949;-78
2021/06/06 05:10:57;;;;;;;;;63.75;50.75;;;;;20.67;66.06;100924.53;5056570;28;9262;-78
2021/06/06 05:13:53;;;;;;;;;45.00;38.33;;;;;20.89;67.62;100927.44;5050329;28;9848;-77
2021/06/06 05:16:49;;;;;;;;;64.50;51.00;;;;;21.07;66.22;100923.47;5022260;28;9813;-77
2021/06/06 05:19:37;;;;;;;;;62.25;50.50;;;;;21.10;66.19;100919.06;5020868;28;9481;-77
2021/06/06 05:22:13;;;;;;;;;58.50;47.75;;;;;21.22;66.17;100921.50;5035259;28;9639;-78
2021/06/06 05:25:11;;;;;;;;;49.00;39.75;;;;;21.40;64.95;100926.41;5033252;28;9381;-77
2021/06/06 05:28:10;;;;;;;;;45.25;39.00;;;;;21.32;64.66;100928.41;5020221;28;8838;-78
2021/06/06 05:31:07;;;;;;;;;52.25;43.50;;;;;21.48;64.40;100926.03;5046035;28;8862;-77
2021/06/06 05:33:35;;;;;;;;;52.25;43.50;;;;;21.71;64.69;100931.28;5035260;28;8843;-78
2021/06/06 05:36:31;;;;;;;;;43.75;35.25;;;;;21.63;62.08;100924.84;5035183;28;8855;-75
2021/06/06 05:39:26;;;;;;;;;41.75;34.50;;;;;21.68;63.04;100920.78;5011642;28;8952;-73
2021/06/06 05:41:54;;;;;;;;;41.75;36.25;;;;;21.99;63.78;100927.63;4998731;28;8885;-74
2021/06/06 05:44:50;;;;;;;;;29.00;27.75;;;;;22.13;61.43;100926.84;5033391;28;8847;-74
2021/06/06 05:47:46;;;;;;;;;32.00;31.00;;;;;22.05;61.43;100919.59;5033581;28;8857;-74
2021/06/06 05:50:45;;;;;;;;;18.50;18.50;;;;;22.27;60.45;100926.84;5031853;28;8933;-74
2021/06/06 05:53:28;;;;;;;;;12.75;12.75;;;;;22.14;56.86;100926.44;5033474;28;8845;-74
2021/06/06 05:56:25;;;;;;;;;15.50;14.50;;;;;22.25;58.24;100925.63;5031761;28;9603;-74
2021/06/06 05:58:54;;;;;;;;;11.75;11.75;;;;;22.18;57.32;100923.63;5025453;28;8837;-74
2021/06/06 06:01:49;;;;;;;;;12.00;12.00;;;;;22.24;56.95;100922.03;5045626;28;8836;-73
2021/06/06 06:04:18;;;;;;;;;12.00;12.00;;;;;22.38;56.96;100927.59;5052760;28;8920;-73
2021/06/06 06:06:46;;;;;;;;;13.50;13.50;;;;;22.27;55.75;100917.59;5052713;28;8828;-74
2021/06/06 06:09:14;;;;;;;;;22.25;22.25;;;;;22.66;59.08;100920.28;5052040;28;8830;-74
2021/06/06 06:11:53;;;;;;;;;10.40;10.40;;;;;22.77;55.46;100912.56;5056667;28;8846;-74
2021/06/06 06:14:21;;;;;;;;;22.00;21.50;;;;;23.00;57.65;100915.75;5055203;28;8918;-74
2021/06/06 06:17:09;;;;;;;;;15.20;15.20;;;;;22.93;56.71;100921.44;5072600;28;8841;-74
2021/06/06 06:19:36;;;;;;;;;16.60;16.20;;;;;22.90;55.67;100918.59;5064531;28;8849;-74
2021/06/06 06:22:04;;;;;;;;;13.60;13.60;;;;;23.20;55.43;100906.75;5054883;28;8844;-73
2021/06/06 06:24:32;;;;;;;;;12.00;12.00;;;;;23.34;54.78;100917.16;5072786;28;8852;-74
2021/06/06 06:27:01;;;;;;;;;21.40;18.80;;;;;23.40;55.58;100913.50;5072653;28;8840;-74
2021/06/06 06:29:29;;;;;;;;;17.80;17.80;;;;;23.61;53.73;100915.38;5056277;28;8827;-71
2021/06/06 06:31:58;;;;;;;;;29.00;28.50;;;;;23.70;54.22;100912.91;5054642;28;8837;-73
2021/06/06 06:34:26;;;;;;;;;34.00;32.00;;;;;23.76;53.30;100918.88;5054992;28;8841;-74
2021/06/06 06:37:03;;;;;;;;;17.50;17.50;;;;;24.16;54.46;100917.34;5074049;28;8865;-71
2021/06/06 06:39:41;;;;;;;;;20.40;19.80;;;;;24.11;52.94;100912.13;5076512;28;8834;-72
2021/06/06 06:42:09;;;;;;;;;26.00;21.80;;;;;24.00;51.77;100911.41;5076298;28;8837;-72
2021/06/06 06:44:37;;;;;;;;;40.75;34.00;;;;;24.11;53.05;100912.94;5075898;28;8842;-72
2021/06/06 06:47:24;;;;;;;;;42.50;33.75;;;;;24.35;53.33;100922.41;5076393;28;8838;-72
2021/06/06 06:49:55;;;;;;;;;39.25;31.25;;;;;24.44;52.37;100913.44;5091330;28;8873;-72
2021/06/06 06:52:28;;;;;;;;;30.50;29.25;;;;;24.61;52.74;100914.44;5058897;28;8858;-72
2021/06/06 06:54:56;;;;;;;;;32.50;30.25;;;;;24.52;49.06;100917.78;5075869;28;8864;-72
2021/06/06 06:57:24;;;;;;;;;27.40;27.40;;;;;24.78;49.98;100912.66;5075149;28;8830;-72
2021/06/06 06:59:52;;;;;;;;;18.60;18.60;;;;;25.09;49.31;100917.09;5064070;28;8841;-72
2021/06/06 07:02:20;;;;;;;;;14.00;14.00;;;;;25.10;48.64;100913.06;5075545;28;8849;-72
2021/06/06 07:04:53;;;;;;;;;14.40;14.40;;;;;24.98;48.64;100915.59;5056147;28;8940;-72
2021/06/06 07:07:21;;;;;;;;;14.80;14.80;;;;;25.03;49.83;100913.16;5053871;28;9762;-73
2021/06/06 07:09:50;;;;;;;;;13.60;13.60;;;;;24.89;48.93;100918.97;5068958;28;8863;-74
2021/06/06 07:12:18;;;;;;;;;11.80;11.80;;;;;25.06;48.80;100917.94;5053749;28;8860;-73
2021/06/06 07:15:08;;;;;;;;;17.60;16.80;;;;;25.09;49.22;100917.09;5047205;28;9447;-71
2021/06/06 07:17:37;;;;;;;;;22.00;22.00;;;;;25.07;50.41;100922.38;5058976;28;8836;-73
2021/06/06 07:20:12;;;;;;;;;26.00;24.40;;;;;25.22;49.39;100926.59;5063646;28;8840;-73
2021/06/06 07:23:02;;;;;;;;;17.80;17.80;;;;;25.30;48.78;100924.47;5052945;28;8840;-73
2021/06/06 07:25:31;;;;;;;;;27.80;27.40;;;;;25.23;47.30;100925.41;5034385;28;8848;-73
2021/06/06 07:27:59;;;;;;;;;18.40;18.40;;;;;25.20;47.82;100931.09;5052796;28;8856;-74
2021/06/06 07:30:33;;;;;;;;;16.60;16.40;;;;;25.12;46.63;100930.41;5035973;28;8913;-74
2021/06/06 07:33:01;;;;;;;;;21.40;21.00;;;;;25.19;45.25;100926.66;5054966;28;8836;-73
2021/06/06 07:35:31;;;;;;;;;23.60;20.40;;;;;25.05;43.94;100933.31;5055046;28;8914;-72
2021/06/06 07:38:00;;;;;;;;;32.20;30.60;;;;;24.97;45.73;100931.78;5055311;28;8867;-73
2021/06/06 07:40:34;;;;;;;;;26.40;26.40;;;;;24.78;45.17;100926.78;5054949;28;8863;-74
2021/06/06 07:43:03;;;;;;;;;44.00;34.50;;;;;24.50;45.30;100936.41;5054924;28;8913;-73
2021/06/06 07:45:31;;;;;;;;;42.50;35.00;;;;;24.83;47.69;100934.78;5055004;28;8859;-74
2021/06/06 07:48:00;;;;;;;;;46.00;38.50;;;;;24.69;46.97;100930.13;5037413;28;8863;-73
2021/06/06 07:50:32;;;;;;;;;41.00;34.00;;;;;24.96;46.87;100933.00;5054985;28;8840;-74
2021/06/06 07:53:00;;;;;;;;;32.40;27.40;;;;;24.99;47.46;100923.66;5054940;28;8882;-73
2021/06/06 07:55:29;;;;;;;;;25.80;24.20;;;;;25.27;46.01;100930.19;5054838;28;8867;-73
2021/06/06 07:57:57;;;;;;;;;22.80;21.40;;;;;25.25;46.71;100933.47;5054358;28;8877;-72
2021/06/06 08:00:33;;;;;;;;;20.20;20.00;;;;;25.37;46.95;100929.22;5054486;28;8920;-73
2021/06/06 08:03:02;;;;;;;;;27.60;27.00;;;;;25.17;47.70;100926.31;5054468;28;8856;-72
2021/06/06 08:05:30;;;;;;;;;28.60;26.80;;;;;25.30;46.28;100926.50;5054933;28;8848;-72
2021/06/06 08:07:58;;;;;;;;;30.00;27.40;;;;;25.67;46.40;100923.50;5036960;28;8823;-73
2021/06/06 08:10:49;;;;;;;;;31.00;29.60;;;;;25.76;46.15;100923.00;5039631;28;8876;-72
2021/06/06 08:13:18;;;;;;;;;24.80;23.60;;;;;25.88;45.74;100919.56;5054319;28;9569;-73
2021/06/06 08:15:51;;;;;;;;;26.20;23.80;;;;;26.14;45.05;100922.75;5054641;28;8844;-73
2021/06/06 08:18:24;;;;;;;;;26.40;26.40;;;;;26.21;44.40;100922.63;5054725;28;8852;-73
2021/06/06 08:21:05;;;;;;;;;34.60;30.60;;;;;26.56;45.12;100921.19;5069181;28;9699;-73
2021/06/06 08:23:34;;;;;;;;;31.40;28.20;;;;;26.42;44.28;100921.44;5054252;28;8835;-73
2021/06/06 08:26:04;;;;;;;;;33.20;30.00;;;;;26.32;44.73;100923.25;5054141;28;8869;-73
2021/06/06 08:28:32;;;;;;;;;37.60;32.00;;;;;26.54;43.51;100918.78;5054349;28;8832;-73
2021/06/06 08:31:05;;;;;;;;;25.40;25.00;;;;;27.00;43.88;100913.38;5054075;28;8848;-74
2021/06/06 08:33:35;;;;;;;;;23.20;23.00;;;;;27.06;43.89;100914.47;5054201;28;8840;-74
2021/06/06 08:36:22;;;;;;;;;26.20;25.60;;;;;27.42;42.36;100920.94;5054126;28;8950;-73
2021/06/06 08:38:52;;;;;;;;;32.20;30.40;;;;;26.87;41.19;100916.09;5047997;28;8835;-72
2021/06/06 08:41:28;;;;;;;;;39.40;34.00;;;;;26.56;43.11;100916.31;5053832;28;8958;-73
2021/06/06 08:44:08;;;;;;;;;32.00;30.20;;;;;26.57;41.95;100919.94;5053930;28;8832;-74
2021/06/06 08:46:51;;;;;;;;;28.00;27.80;;;;;26.31;42.87;100915.97;5054020;28;8848;-73
2021/06/06 08:49:20;;;;;;;;;29.00;27.00;;;;;26.27;41.96;100915.22;5036674;28;9015;-73
2021/06/06 08:51:52;;;;;;;;;30.40;29.20;;;;;26.51;42.87;100921.69;5053712;28;8840;-74
2021/06/06 08:54:20;;;;;;;;;27.80;27.00;;;;;26.09;42.90;100918.41;5036452;28;8851;-74
2021/06/06 08:56:57;;;;;;;;;21.20;20.80;;;;;25.95;40.80;100913.78;5053702;28;8844;-73
2021/06/06 08:59:35;;;;;;;;;18.20;18.20;;;;;26.34;40.84;100918.72;5052798;28;8843;-73
2021/06/06 09:02:03;;;;;;;;;18.20;18.20;;;;;26.60;41.23;100919.84;5053590;28;8855;-73
2021/06/06 09:04:34;;;;;;;;;8.80;8.80;;;;;26.78;41.27;100921.56;5053034;28;8867;-73
2021/06/06 09:07:09;;;;;;;;;12.20;11.80;;;;;27.30;39.62;100915.97;5053470;28;8844;-74
2021/06/06 09:09:51;;;;;;;;;11.80;11.80;;;;;27.01;40.96;100914.97;5035417;28;8872;-74
2021/06/06 09:12:22;;;;;;;;;9.20;9.20;;;;;26.90;40.01;100915.19;5053698;28;8844;-72
2021/06/06 09:14:54;;;;;;;;;7.00;7.00;;;;;27.17;38.56;100919.94;5053511;28;8863;-73
2021/06/06 09:17:43;;;;;;;;;6.80;6.80;;;;;27.75;38.82;100921.00;5036106;28;8914;-73
2021/06/06 09:20:32;;;;;;;;;8.00;8.00;;;;;27.94;37.77;100920.13;5052951;28;8856;-73
2021/06/06 09:23:07;;;;;;;;;5.00;5.00;;;;;28.13;36.60;100911.91;5053081;28;8843;-73
2021/06/06 09:25:39;;;;;;;;;5.40;5.40;;;;;28.12;35.34;100916.78;5053226;28;8851;-73
2021/06/06 09:28:15;;;;;;;;;4.40;4.40;;;;;27.88;36.95;100916.22;5053471;28;8879;-73
2021/06/06 09:30:59;;;;;;;;;6.00;6.00;;;;;28.44;36.53;100912.31;5052971;28;9691;-72
2021/06/06 09:33:46;;;;;;;;;6.60;6.60;;;;;28.58;35.59;100911.13;5053249;28;8879;-73
2021/06/06 09:36:23;;;;;;;;;7.20;7.20;;;;;28.49;35.76;100906.09;5035920;28;8867;-73
2021/06/06 09:39:06;;;;;;;;;7.00;7.00;;;;;28.29;35.78;100903.34;5035946;28;8848;-73
2021/06/06 09:41:43;;;;;;;;;8.00;8.00;;;;;28.44;37.40;100901.72;5053213;28;8848;-74
2021/06/06 09:44:13;;;;;;;;;7.80;7.80;;;;;28.59;37.76;100907.81;5035732;28;8832;-74
2021/06/06 09:46:43;;;;;;;;;9.80;8.80;;;;;27.47;38.98;100899.75;5052958;28;8875;-73
2021/06/06 09:49:24;;;;;;;;;8.80;8.80;;;;;28.07;38.43;100890.97;5053055;28;8848;-74
2021/06/06 09:51:56;;;;;;;;;8.00;8.00;;;;;27.44;39.92;100883.59;5035519;28;8917;-74
2021/06/06 09:54:27;;;;;;;;;6.60;6.60;;;;;28.28;38.30;100890.38;5053016;28;8855;-73
2021/06/06 09:56:58;;;;;;;;;8.20;8.20;;;;;28.16;38.07;100885.44;5052748;28;8840;-73
2021/06/06 09:59:33;;;;;;;;;7.80;7.80;;;;;28.09;38.63;100882.78;5052874;28;8848;-73
2021/06/06 10:02:29;;;;;;;;;7.00;7.00;;;;;28.23;38.52;100882.41;5035384;28;8914;-74
2021/06/06 10:05:23;;;;;;;;;8.20;7.20;;;;;28.78;37.89;100878.41;5052539;28;8983;-72
2021/06/06 10:08:22;;;;;;;;;8.20;8.20;;;;;28.83;37.06;100877.03;5052896;28;8844;-73
2021/06/06 10:11:12;;;;;;;;;5.60;5.60;;;;;28.58;37.12;100876.97;5054280;28;9105;-74
2021/06/06 10:13:45;;;;;;;;;6.40;6.40;;;;;28.90;35.22;100881.72;5057000;28;8856;-74
2021/06/06 10:16:18;;;;;;;;;5.20;5.20;;;;;29.27;35.14;100875.28;5039826;28;8848;-73
2021/06/06 10:19:18;;;;;;;;;5.00;5.00;;;;;28.61;36.61;100876.09;5056752;28;8856;-73
2021/06/06 10:21:48;;;;;;;;;8.20;7.40;;;;;28.50;38.49;100879.22;5056443;28;8864;-73
2021/06/06 10:24:43;;;;;;;;;7.20;7.20;;;;;28.44;38.22;100873.28;5056459;28;8905;-73
2021/06/06 10:27:29;;;;;;;;;6.20;6.20;;;;;28.64;36.04;100875.19;5056690;28;8846;-73
2021/06/06 10:30:35;;;;;;;;;5.80;5.80;;;;;28.34;36.54;100867.91;5062524;28;9668;-74
2021/06/06 10:33:15;;;;;;;;;6.20;5.60;;;;;27.70;36.54;100864.72;5071934;28;8950;-73
2021/06/06 10:35:43;;;;;;;;;5.00;5.00;;;;;27.77;36.47;100867.38;5076449;28;8922;-74
2021/06/06 10:38:26;;;;;;;;;9.00;9.00;;;;;28.17;36.08;100858.59;5069737;28;8907;-75
2021/06/06 10:41:45;;;;;;;;;5.80;5.80;;;;;27.92;36.21;100851.56;5045615;28;8836;-74
2021/06/06 10:44:19;;;;;;;;;5.80;4.80;;;;;27.88;35.94;100853.69;5065029;28;8856;-74
2021/06/06 10:46:52;;;;;;;;;5.20;5.20;;;;;27.91;37.44;100858.50;5070729;28;8857;-73
2021/06/06 10:49:54;;;;;;;;;5.60;5.60;;;;;28.32;36.37;100853.34;5075671;28;9607;-73
2021/06/06 10:52:38;;;;;;;;;5.60;5.60;;;;;28.03;37.08;100848.41;5053494;28;9622;-74
2021/06/06 10:55:36;;;;;;;;;7.00;7.00;;;;;28.08;36.87;100845.03;5022429;28;8830;-73
2021/06/06 10:58:15;;;;;;;;;12.20;12.20;;;;;28.12;36.49;100847.78;5036137;28;8866;-73
2021/06/06 11:00:59;;;;;;;;;8.00;8.00;;;;;28.10;37.07;100851.06;5035926;28;8935;-73
2021/06/06 11:04:12;;;;;;;;;6.00;6.00;;;;;27.29;38.35;100836.91;5021616;28;8850;-73
2021/06/06 11:07:08;;;;;;;;;4.20;4.20;;;;;27.92;37.53;100850.75;5038592;28;8833;-73
2021/06/06 11:09:39;;;;;;;;;6.00;6.00;;;;;28.03;36.59;100847.63;5035822;28;9583;-72
2021/06/06 11:12:33;;;;;;;;;4.20;4.20;;;;;27.71;37.13;100846.44;5035749;28;8842;-73
2021/06/06 11:15:29;;;;;;;;;4.00;4.00;;;;;27.36;37.45;100860.25;5035845;28;9568;-73
2021/06/06 11:18:19;;;;;;;;;4.20;4.20;;;;;27.52;38.40;100850.13;5020720;28;8931;-73
2021/06/06 11:21:15;;;;;;;;;8.40;8.00;;;;;27.50;38.77;100844.91;5024022;28;8842;-73
2021/06/06 11:24:31;;;;;;;;;4.80;4.80;;;;;26.79;39.09;100849.38;5059849;28;8835;-73
2021/06/06 11:27:29;;;;;;;;;4.00;4.00;;;;;26.77;40.72;100843.34;5055562;28;9561;-73
2021/06/06 11:30:25;;;;;;;;;8.00;8.00;;;;;26.81;40.79;100856.22;5042189;28;8836;-72
2021/06/06 11:33:19;;;;;;;;;6.20;6.20;;;;;26.66;39.98;100849.25;5055606;28;8867;-73
2021/06/06 11:35:50;;;;;;;;;7.40;7.40;;;;;26.67;40.35;100845.16;5054396;28;8879;-73
2021/06/06 11:38:40;;;;;;;;;8.00;8.00;;;;;26.45;41.93;100846.84;5021870;28;8848;-73
2021/06/06 11:41:23;;;;;;;;;7.40;7.40;;;;;26.52;42.32;100835.34;5070339;28;8970;-73
2021/06/06 11:43:56;;;;;;;;;7.60;7.60;;;;;26.43;40.81;100835.16;5055135;28;8939;-73
2021/06/06 11:47:25;;;;;;;;;6.20;6.20;;;;;26.38;40.87;100838.47;5053734;28;8859;-74
2021/06/06 11:50:12;;;;;;;;;8.80;8.80;;;;;26.37;41.71;100834.81;5037683;28;8933;-74
2021/06/06 11:52:44;;;;;;;;;12.20;12.20;;;;;26.22;41.58;100837.13;5057344;28;8858;-73
2021/06/06 11:55:31;;;;;;;;;7.00;7.00;;;;;26.20;41.76;100831.13;5064189;28;8925;-73
2021/06/06 11:58:15;;;;;;;;;8.00;7.40;;;;;26.43;39.88;100830.28;5055034;28;9572;-73
2021/06/06 12:00:51;;;;;;;;;6.40;6.40;;;;;27.19;39.16;100837.97;5054827;28;8856;-73
2021/06/06 12:03:29;;;;;;;;;6.40;5.80;;;;;27.88;38.44;100828.09;5041774;28;9597;-73
2021/06/06 12:06:07;;;;;;;;;5.40;5.40;;;;;27.83;37.26;100822.97;5060622;28;8848;-73
2021/06/06 12:08:47;;;;;;;;;10.20;7.00;;;;;28.69;36.82;100841.28;5050682;28;8858;-73
2021/06/06 12:11:44;;;;;;;;;6.60;6.60;;;;;28.97;36.29;100830.28;5044641;28;8826;-72
2021/06/06 12:14:40;;;;;;;;;6.00;6.00;;;;;28.85;36.16;100816.81;5041039;28;8950;-72
2021/06/06 12:17:30;;;;;;;;;7.60;7.60;;;;;28.43;37.03;100822.53;5045971;28;8824;-71
2021/06/06 12:20:02;;;;;;;;;7.80;7.80;;;;;28.92;37.19;100822.34;5036719;28;8937;-72
2021/06/06 12:23:10;;;;;;;;;7.60;7.60;;;;;29.07;36.66;100823.47;5033455;28;8949;-73
2021/06/06 12:25:52;;;;;;;;;7.00;7.00;;;;;28.89;37.15;100831.72;5037121;28;8975;-72
2021/06/06 12:28:23;;;;;;;;;7.60;7.60;;;;;28.71;36.98;100824.53;5054193;28;8855;-72
2021/06/06 12:30:54;;;;;;;;;10.00;10.00;;;;;28.17;38.84;100828.13;5054022;28;8909;-71
2021/06/06 12:33:32;;;;;;;;;11.60;11.60;;;;;28.18;38.90;100831.78;5053961;28;9593;-73
2021/06/06 12:36:14;;;;;;;;;8.40;8.40;;;;;27.44;37.95;100827.56;5055826;28;8984;-71
2021/06/06 12:39:15;;;;;;;;;8.00;8.00;;;;;27.24;39.88;100820.41;5059354;28;9666;-72
2021/06/06 12:42:13;;;;;;;;;10.60;10.60;;;;;27.58;39.97;100817.09;5066990;28;8870;-72
2021/06/06 12:45:15;;;;;;;;;8.60;8.60;;;;;28.36;39.73;100820.69;5052773;28;8850;-72
2021/06/06 12:48:29;;;;;;;;;6.80;6.20;;;;;28.29;37.49;100817.22;5053229;28;8832;-71